METAR v bližini

 

LJLJ - Ljubljana/Brnik, Slovenia
Oddaljenost od postaje: W 41km
Podatki zajeti: 08/04/2020 04:00
Jasno
Jasno
 Veter iz smeri spremenljiv
Veter: spremenljiv 2 km/h
Temperatura: -2°C
Rosišče: -5°C
Vlažnost: 80%
Tlak: 1030 hPa
Stanje: Jasno
Vidljivost: večja od 10 km
2020/04/08 02:00 LJLJ 080200Z VRB01KT CAVOK M02/M05 Q1030 NOSIG
LJMB - Maribor, Slovenia
Oddaljenost od postaje: NE 63km
Podatki zajeti: 08/04/2020 04:00
Jasno
Jasno
 Veter iz smeri spremenljiv
Veter: spremenljiv 2 km/h
Temperatura: 0°C
Rosišče: -4°C
Vlažnost: 75%
Tlak: 1031 hPa
Oblačnost: Jasno
Vidljivost: 10 km
2020/04/08 02:00 LJMB 080200Z AUTO VRB01KT 9999 NCD M00/M04 Q1031
 
LJPZ - Portoroz, Slovenia
Oddaljenost od postaje: SW 130km
Podatki zajeti: 08/04/2020 04:00
Jasno
Jasno
 Veter iz smeri ESE
Veter: ESE 17 km/h
Temperatura: 6°C
Občutek mraza zaradi vetra: 3°C
Rosišče: -6°C
Vlažnost: 42%
Tlak: 1027 hPa
Oblačnost: Jasno
Vidljivost: 10 km
2020/04/08 02:00 LJPZ 080200Z AUTO 12009KT 9999 NCD 06/M06 Q1027
LJCE - Cerklje, Slovenia
Oddaljenost od postaje: ESE 49km
Podatki zajeti: 08/04/2020 04:00
Jasno
Jasno
 Veter iz smeri W
Veter: W 2 km/h
Temperatura: -1°C
Rosišče: -4°C
Vlažnost: 80%
Tlak: 1031 hPa
Oblačnost: Jasno
Vidljivost: 10 km
2020/04/08 02:00 LJCE 080200Z AUTO 28001KT 9999 NCD M01/M04 Q1031
 
LDZA - Zagreb/Pleso, Croatia
Oddaljenost od postaje: ESE 96km
Podatki zajeti: 08/04/2020 04:00
Jasno
Jasno
 Veter iz smeri SW
Veter: SW 6 km/h
Temperatura: 0°C
Rosišče: -4°C
Vlažnost: 75%
Tlak: 1031 hPa
Stanje: Jasno
Vidljivost: večja od 10 km
2020/04/08 02:00 LDZA 080200Z 23003KT 170V250 CAVOK M00/M04 Q1031 NOSIG
LDRI - Rijeka/Omisalj, Croatia
Oddaljenost od postaje: SSW 109km
Podatki zajeti: 07/04/2020 19:00
Ni posodobljen
Jasno
Jasno
 Veter iz smeri ENE
Veter: ENE 15 km/h
Temperatura: 20°C
Rosišče: -7°C
Vlažnost: 16%
Tlak: 1027 hPa
Stanje: Jasno
Vidljivost: večja od 10 km
2020/04/07 17:00 LDRI 071700Z 07008KT 020V100 CAVOK 20/M07 Q1027
 
LDPL - Pula, Croatia
Oddaljenost od postaje: SSW 164km
Podatki zajeti: 08/04/2020 04:00
Jasno
Jasno
 Veter iz smeri ENE
Veter: ENE 17 km/h
Temperatura: 10°C
Občutek mraza zaradi vetra: 8°C
Rosišče: -8°C
Vlažnost: 28%
Tlak: 1027 hPa
Stanje: Jasno
Vidljivost: večja od 10 km
2020/04/08 02:00 LDPL 080200Z 07009KT CAVOK 10/M08 Q1027
LOWK - Klagenfurt(Civ/M, Austria
Oddaljenost od postaje: NW 76km
Podatki zajeti: 08/04/2020 04:20
Jasno
Jasno
 Veter iz smeri NW
Veter: NW 7 km/h
Temperatura: 2°C
Občutek mraza zaradi vetra: 0°C
Rosišče: -4°C
Vlažnost: 65%
Tlak: 1032 hPa
Oblačnost: Jasno
Vidljivost: 10 km
2020/04/08 02:20 LOWK 080220Z AUTO 31004KT 9999 NCD 02/M04 Q1032
 
LOWG - Graz (mil/Civ), Austria
Oddaljenost od postaje: NNE 100km
Podatki zajeti: 08/04/2020 04:20
Jasno
Jasno
 Veter iz smeri spremenljiv
Veter: spremenljiv 2 km/h
Temperatura: -1°C
Rosišče: -5°C
Vlažnost: 75%
Tlak: 1031 hPa
Oblačnost: Jasno
Vidljivost: 10 km
2020/04/08 02:20 LOWG 080220Z AUTO VRB01KT 9999 NCD M01/M05 Q1031
LOAN - Wr.neustadt East, Austria
Oddaljenost od postaje: NNE 212km
Podatki zajeti: 07/04/2020 18:00
Ni posodobljen
Jasno
Jasno
 Veter iz smeri SSE
Veter: SSE 24 km/h
Stanje: Jasno
Vidljivost: večja od 10 km
2020/04/07 16:00 LOAN 071600Z 15013KT CAVOK
 
LIPQ - Ronchi Legionari, Italy
Oddaljenost od postaje: SW 35km
Podatki zajeti: 06/04/2020 05:50
Ni posodobljen
Jasno
Jasno
 Veter iz smeri N
Veter: N 6 km/h
Temperatura: 9°C
Rosišče: 1°C
Vlažnost: 58%
Tlak: 1025 hPa
Oblačnost: Jasno
Vidljivost: 10 km
2020/04/06 03:50 LIPQ 060350Z AUTO 35003KT 9999 NCD 09/01 Q1025
LIVT - Trieste, Italy
Oddaljenost od postaje: WSW 109km
Podatki zajeti: 08/04/2020 03:55
Jasno
Jasno
 Veter iz smeri spremenljiv
Veter: spremenljiv 0 km/h
Temperatura: 15°C
Rosišče: -7°C
Vlažnost: 21%
Tlak: 1027 hPa
Stanje: Jasno
Vidljivost: večja od 10 km
2020/04/08 01:55 LIVT 080155Z /////KT CAVOK 15/M07 Q1027 RMK SKC QUK / QUL / VIS MAR 20 KM VIS MIN 9999
 
LIVO - Tarvisio, Italy
Oddaljenost od postaje: NNW 49km
Podatki zajeti: 07/04/2020 19:55
Ni posodobljen
Jasno
Jasno
 Veter iz smeri N
Veter: N 2 km/h
Temperatura: 11°C
Rosišče: -1°C
Vlažnost: 44%
Tlak: 1029 hPa
Stanje: Jasno
Vidljivost: večja od 10 km
2020/04/07 17:55 LIVO 071755Z 35001KT CAVOK 11/M01 Q1029 RMK SKC VIS MIN 9999
LIPZ - Venezia/Tessera, Italy
Oddaljenost od postaje: WSW 217km
Podatki zajeti: 08/04/2020 04:20
Jasno
Jasno
 Veter iz smeri N
Veter: N 9 km/h
Temperatura: 10°C
Občutek mraza zaradi vetra: 9°C
Rosišče: -2°C
Vlažnost: 43%
Tlak: 1028 hPa
Stanje: Jasno
Vidljivost: večja od 10 km
2020/04/08 02:20 LIPZ 080220Z 36005KT CAVOK 10/M02 Q1028 NOSIG
 
LHSM - Balaton, Hungary
Oddaljenost od postaje: ENE 177km
Podatki zajeti: 08/04/2020 03:45
Jasno
Jasno
 Veter iz smeri NW
Veter: NW 6 km/h
Temperatura: 1°C
Rosišče: -4°C
Vlažnost: 70%
Tlak: 1032 hPa
Stanje: Jasno
Vidljivost: večja od 10 km
2020/04/08 01:45 LHSM 080145Z AUTO 31003KT CAVOK 01/M04 Q1032